SAVC/CRD METAR and TAF weather

Enter ICAO airport designator
Station Type Date Time Source
SAVC METAR 2021/05/16 00:00 UTC NOAA

SAVC 160000Z 28008KT CAVOK 10/04 Q1019


Station Type Date Time Source
SAVC Decoded METAR 2021/05/16 00:00 UTC NOAA

Comodoro Rivadavia Aerodrome, Argentina (SAVC) 45-47S 067-30W 46M
May 15, 2021 - 08:00 PM EDT / 2021.05.16 0000 UTC
Wind: from the W (280 degrees) at 9 MPH (8 KT):0
Visibility: greater than 7 mile(s):0
Temperature: 50 F (10 C)
Dew Point: 39 F (4 C)
Relative Humidity: 66%
Pressure (altimeter): 30.09 in. Hg (1019 hPa)
ob: SAVC 160000Z 28008KT CAVOK 10/04 Q1019
cycle: 0

Station Type Date Time Source
SAVC TAF 2021/05/16 00:00 UTC NOAA

TAF SAVC 152300Z 1600/1624 VRB05KT 9999 SCT030 SCT080 TX14/1619Z TN06/1610Z
BECMG 1612/1614 20010KT BKN015 SCT020
BECMG 1618/1620 VRB05KT

Example: see airport list